Reading, Minnesota
Current Conditions -  °F | °C
As of 4:15 PM on Wednesday 28 Jan 2015 (Local Time) from KOTG Reporting Station
Overcast Overcast  
Wind Chill: 28°   Ceiling: 500
Heat Index: 34°   Visibility: 2.5mi
Dew Point: 28°   Wind: 7mph
Humidity: 81%   Direction: 150°SSE
Pressure: 29.71"   Gusts: NA
Location:  43.7°N, 95.71°W
Report Text: KOTG 282215Z AUTO 15006KT 2 1/2SM OVC005 01/M02 A2971 RMK AO1
Loading
Personal Weather Stations






























Interactive Weather Map New forecast layout! Learn more

10-Day Weather Forecast

Advertisements
Track Severe Weather on mobile